CYMO

Details ICAO CYMO (YMO)
Name MOOSONEE
Region Canada
Timezone America/Toronto (UTC-4.0)
Plans Departing 15
Arriving 24
Stats Elevation 30 ft / 9 m (AMSL)
Location 51.292095° -80.608276°
Runways 2
Magnetic Variation 12.081° W
Sunrise 2018-05-21 09:24:37 UTC / 2018-05-21 05:24:37 Local
Sunset 2018-05-22 01:16:19 UTC / 2018-05-21 21:16:19 Local
Advertisement - Login to hide

Runways

ID Width Length Bearing (true) Bearing (mag) Surface Threshold Offset Overrun Length
06 100 ft / 30 m 4,004 ft / 1,220 m 43.12° 55.20° Asphalt 0 ft / 0 m 0 ft / 0 m
14 100 ft / 30 m 3,508 ft / 1,069 m 127.35° 139.43° Dirt 0 ft / 0 m 0 ft / 0 m
24 100 ft / 30 m 4,004 ft / 1,220 m 223.13° 235.21° Asphalt 0 ft / 0 m 0 ft / 0 m
32 100 ft / 30 m 3,508 ft / 1,069 m 307.35° 319.43° Dirt 0 ft / 0 m 0 ft / 0 m

Map

Weather


0- 5 10 15 20 25 30 35+ Temperature / ° C

Clouds and Precipitation
Forecast for 2018-05-22 00:00 UTC. Updated 2 hours ago

Ground ~20,000 ft ~40,000 ft Winds

METAR

CYMO 220100Z AUTO 07009KT 9SM SCT110 OVC130 05/00 A3003 RMK SLP173

TAF

TAF CYMO 212338Z 2200/2212 07010KT P6SM BKN120 FM220200 09012KT P6SM BKN070 OVC120 TEMPO 2202/2212 P6SM -SHRA OVC070 RMK FCST BASED ON AUTO OBS. NXT FCST BY 220600Z

Frequencies

Recorded 124.80 MHz AWOS
Tower 122.50 MHz MF
Unicom 122.50 MHz CTAF
Warning: Do not use this data for real-world aviation or navigation. No guarantee of current accuracy is given.